createdAt,value
2019-04-05T00:02:04.377Z,7.03
2019-04-05T00:04:34.266Z,7.67
2019-04-05T00:07:04.080Z,7.70
2019-04-05T00:09:33.968Z,7.87
2019-04-05T00:12:04.069Z,8.13
2019-04-05T00:14:33.979Z,8.20
2019-04-05T00:17:05.683Z,7.80
2019-04-05T00:19:36.671Z,8.17
2019-04-05T00:22:06.657Z,8.70
2019-04-05T00:24:36.570Z,7.87
2019-04-05T00:27:06.466Z,8.07
2019-04-05T00:29:36.349Z,8.93
2019-04-05T00:32:06.336Z,7.47
2019-04-05T00:34:37.313Z,8.07
2019-04-05T00:37:07.324Z,7.33
2019-04-05T00:39:37.148Z,8.37
2019-04-05T00:42:07.205Z,7.13
2019-04-05T00:44:37.181Z,7.60
2019-04-05T00:47:07.113Z,7.03
2019-04-05T00:49:38.109Z,8.50
2019-04-05T00:52:08.141Z,7.63
2019-04-05T00:54:38.052Z,7.27
2019-04-05T00:57:08.072Z,7.93
2019-04-05T00:59:37.949Z,8.07
2019-04-05T01:02:07.951Z,7.80
2019-04-05T01:04:38.768Z,8.17
2019-04-05T01:07:08.748Z,8.27
2019-04-05T01:09:38.796Z,8.27
2019-04-05T01:12:08.645Z,8.47
2019-04-05T01:14:38.872Z,9.00
2019-04-05T01:17:09.001Z,7.90
2019-04-05T01:19:41.131Z,8.03
2019-04-05T01:22:13.964Z,8.17
2019-04-05T01:24:45.014Z,7.93
2019-04-05T01:27:15.573Z,7.37
2019-04-05T01:29:45.769Z,7.67
2019-04-05T01:32:15.591Z,7.90
2019-04-05T01:34:45.560Z,7.83
2019-04-05T01:37:15.529Z,7.53
2019-04-05T01:39:45.490Z,7.27
2019-04-05T01:42:17.411Z,7.20
2019-04-05T01:44:47.669Z,6.50
2019-04-05T01:47:17.653Z,8.93
2019-04-05T01:49:47.520Z,7.43
2019-04-05T01:52:17.624Z,7.97
2019-04-05T01:54:47.513Z,8.60
2019-04-05T01:57:17.475Z,8.40
2019-04-05T01:59:47.349Z,8.23
2019-04-05T02:02:17.321Z,8.43
2019-04-05T02:04:47.290Z,8.50
2019-04-05T02:07:17.334Z,8.70
2019-04-05T02:09:47.507Z,8.43
2019-04-05T02:12:17.480Z,8.13
2019-04-05T02:14:47.435Z,8.63
2019-04-05T02:17:17.516Z,8.10
2019-04-05T02:19:47.484Z,8.67
2019-04-05T02:22:18.423Z,7.67
2019-04-05T02:24:48.382Z,8.50
2019-04-05T02:27:18.354Z,7.93
2019-04-05T02:29:48.308Z,8.47
2019-04-05T02:32:18.393Z,9.00
2019-04-05T02:34:48.351Z,8.50
2019-04-05T02:37:18.261Z,9.50
2019-04-05T02:39:48.228Z,8.40
2019-04-05T02:42:19.941Z,8.70
2019-04-05T02:44:51.008Z,8.50
2019-04-05T02:47:21.602Z,8.60
2019-04-05T02:49:52.796Z,7.70
2019-04-05T02:52:23.493Z,8.67
2019-04-05T02:54:54.341Z,8.50
2019-04-05T02:57:25.014Z,8.90
2019-04-05T02:59:55.278Z,8.67
2019-04-05T03:02:26.126Z,8.50
2019-04-05T03:04:56.339Z,8.67
2019-04-05T03:07:28.137Z,8.77
2019-04-05T03:09:59.532Z,8.93
2019-04-05T03:12:30.097Z,9.23
2019-04-05T03:15:03.165Z,9.13
2019-04-05T03:17:34.824Z,9.60
2019-04-05T03:20:05.653Z,8.90
2019-04-05T03:22:37.135Z,9.40
2019-04-05T03:25:07.314Z,9.47
2019-04-05T03:27:39.118Z,9.50
2019-04-05T03:30:09.203Z,8.83
2019-04-05T03:32:39.201Z,9.43
2019-04-05T03:35:09.879Z,9.50
2019-04-05T03:37:39.888Z,9.87
2019-04-05T03:40:10.138Z,9.63
2019-04-05T03:42:40.459Z,9.30
2019-04-05T03:45:12.800Z,9.40
2019-04-05T03:47:42.959Z,9.90
2019-04-05T03:50:13.020Z,9.70
2019-04-05T03:52:43.084Z,9.50
2019-04-05T03:55:14.370Z,9.67
2019-04-05T03:57:44.370Z,9.40
2019-04-05T04:00:14.567Z,9.57
2019-04-05T04:02:44.741Z,9.63
2019-04-05T04:05:14.792Z,9.60
2019-04-05T04:07:44.970Z,9.73
2019-04-05T04:10:18.254Z,10.83
2019-04-05T04:12:49.694Z,9.73
2019-04-05T04:15:19.670Z,9.00
2019-04-05T04:17:49.943Z,9.73
2019-04-05T04:20:39.073Z,10.27
2019-04-05T04:23:10.555Z,9.43
2019-04-05T04:25:41.176Z,10.10
2019-04-05T04:28:12.061Z,9.10
2019-04-05T04:30:42.144Z,9.93
2019-04-05T04:33:12.920Z,10.87
2019-04-05T04:35:43.282Z,10.23
2019-04-05T04:38:13.282Z,10.73
2019-04-05T04:40:43.567Z,9.63
2019-04-05T04:43:13.926Z,10.30
2019-04-05T04:45:44.297Z,9.40
2019-04-05T04:48:14.284Z,10.20
2019-04-05T04:50:44.955Z,10.40
2019-04-05T04:53:15.936Z,10.13
2019-04-05T04:55:46.079Z,10.13
2019-04-05T04:58:16.074Z,10.60
2019-04-05T05:00:46.253Z,9.57
2019-04-05T05:03:17.542Z,10.40
2019-04-05T05:05:47.734Z,10.30
2019-04-05T05:08:18.049Z,11.40
2019-04-05T05:10:48.242Z,12.07
2019-04-05T05:13:18.248Z,10.70
2019-04-05T05:15:48.545Z,11.30
2019-04-05T05:18:20.017Z,11.20
2019-04-05T05:20:50.169Z,12.37
2019-04-05T05:23:20.136Z,12.07
2019-04-05T05:25:50.800Z,13.50
2019-04-05T05:28:21.110Z,14.23
2019-04-05T05:30:51.643Z,13.77
2019-04-05T05:33:21.813Z,13.03
2019-04-05T05:35:51.776Z,14.23
2019-04-05T05:38:21.958Z,13.87
2019-04-05T05:40:51.946Z,13.70
2019-04-05T05:43:24.026Z,13.27
2019-04-05T05:45:54.191Z,14.63
2019-04-05T05:48:24.472Z,13.03
2019-04-05T05:50:55.057Z,14.17
2019-04-05T05:53:25.243Z,12.97
2019-04-05T05:55:55.083Z,12.43
2019-04-05T05:58:25.871Z,14.20
2019-04-05T06:00:56.327Z,14.97
2019-04-05T06:03:26.331Z,15.13
2019-04-05T06:06:04.176Z,15.27
2019-04-05T06:08:29.306Z,17.17
2019-04-05T06:10:59.339Z,17.07
2019-04-05T06:13:29.230Z,15.37
2019-04-05T06:15:59.062Z,17.03
2019-04-05T06:18:29.987Z,16.00
2019-04-05T06:20:59.909Z,16.60
2019-04-05T06:23:34.014Z,18.20
2019-04-05T06:26:01.274Z,16.93
2019-04-05T06:28:31.336Z,15.67
2019-04-05T06:31:02.334Z,17.00
2019-04-05T06:33:32.271Z,17.87
2019-04-05T06:36:02.174Z,17.67
2019-04-05T06:38:32.014Z,16.37
2019-04-05T06:41:01.996Z,17.07
2019-04-05T06:43:32.035Z,15.90
2019-04-05T06:46:02.017Z,16.97
2019-04-05T06:48:32.137Z,17.53
2019-04-05T06:51:02.040Z,15.13
2019-04-05T06:53:32.042Z,16.30
2019-04-05T06:56:01.961Z,17.27
2019-04-05T06:58:31.791Z,15.43
2019-04-05T07:01:01.788Z,16.37
2019-04-05T07:03:31.695Z,16.10
2019-04-05T07:06:01.647Z,17.50
2019-04-05T07:08:31.561Z,19.93
2019-04-05T07:11:02.470Z,17.70
2019-04-05T07:13:33.517Z,19.40
2019-04-05T07:16:03.450Z,18.27
2019-04-05T07:18:36.204Z,17.77
2019-04-05T07:21:05.082Z,17.60
2019-04-05T07:23:34.983Z,16.97
2019-04-05T07:26:04.958Z,17.37
2019-04-05T07:28:34.972Z,15.20
2019-04-05T07:31:04.929Z,16.00
2019-04-05T07:33:35.309Z,16.20
2019-04-05T07:36:05.214Z,16.00
2019-04-05T07:38:35.142Z,17.33
2019-04-05T07:41:05.044Z,16.40
2019-04-05T07:43:35.346Z,18.70
2019-04-05T07:46:05.361Z,17.00
2019-04-05T07:48:44.848Z,18.93
2019-04-05T07:51:07.986Z,17.87
2019-04-05T07:53:37.813Z,16.43
2019-04-05T07:56:07.828Z,19.13
2019-04-05T07:58:37.690Z,17.83
2019-04-05T08:01:07.962Z,17.17
2019-04-05T08:03:37.956Z,17.43
2019-04-05T08:06:07.870Z,16.50
2019-04-05T08:08:46.398Z,18.10
2019-04-05T08:11:17.140Z,16.63
2019-04-05T08:13:49.420Z,17.17
2019-04-05T08:16:19.416Z,16.77
2019-04-05T08:18:57.584Z,17.23
2019-04-05T08:21:21.111Z,16.30
2019-04-05T08:23:51.112Z,16.77
2019-04-05T08:26:21.016Z,16.03
2019-04-05T08:28:51.041Z,18.43
2019-04-05T08:31:20.864Z,18.43
2019-04-05T08:33:50.790Z,19.07
2019-04-05T08:36:20.755Z,19.00
2019-04-05T08:38:50.676Z,17.83
2019-04-05T08:41:20.606Z,17.90
2019-04-05T08:43:50.757Z,16.13
2019-04-05T08:46:20.659Z,14.83
2019-04-05T08:48:52.343Z,15.33
2019-04-05T08:51:22.366Z,16.80
2019-04-05T08:53:52.280Z,15.70
2019-04-05T08:56:22.367Z,14.73
2019-04-05T08:58:52.209Z,13.73
2019-04-05T09:01:22.131Z,13.53
2019-04-05T09:03:51.965Z,13.90
2019-04-05T09:06:21.835Z,13.47
2019-04-05T09:08:51.802Z,13.77
2019-04-05T09:11:21.634Z,14.23
2019-04-05T09:13:52.140Z,14.93
2019-04-05T09:16:22.130Z,13.87
2019-04-05T09:18:51.967Z,14.97
2019-04-05T09:21:21.851Z,14.60
2019-04-05T09:23:51.793Z,13.90
2019-04-05T09:26:21.632Z,13.40
2019-04-05T09:28:51.663Z,12.30
2019-04-05T09:31:21.631Z,13.27
2019-04-05T09:33:51.499Z,12.00
2019-04-05T09:36:21.413Z,11.53
2019-04-05T09:38:51.424Z,12.23
2019-04-05T09:41:21.399Z,11.73
2019-04-05T09:43:51.338Z,12.27
2019-04-05T09:46:21.377Z,11.37
2019-04-05T09:48:51.285Z,11.57
2019-04-05T09:51:21.282Z,11.87
2019-04-05T09:53:51.262Z,11.73
2019-04-05T09:56:21.154Z,11.40
2019-04-05T09:58:51.028Z,11.80
2019-04-05T10:01:21.825Z,11.10
2019-04-05T10:03:51.813Z,10.43
2019-04-05T10:06:21.662Z,11.10
2019-04-05T10:08:51.480Z,11.07
2019-04-05T10:11:21.294Z,11.00
2019-04-05T10:13:51.275Z,9.93
2019-04-05T10:16:21.181Z,11.47
2019-04-05T10:18:51.621Z,10.50
2019-04-05T10:21:21.666Z,11.33
2019-04-05T10:23:51.569Z,10.60
2019-04-05T10:26:21.419Z,12.17
2019-04-05T10:28:51.311Z,11.50
2019-04-05T10:31:21.236Z,12.37
2019-04-05T10:33:51.149Z,11.40
2019-04-05T10:36:21.137Z,11.77
2019-04-05T10:38:51.103Z,12.10
2019-04-05T10:41:23.011Z,12.77
2019-04-05T10:43:52.654Z,12.80
2019-04-05T10:46:23.084Z,13.13
2019-04-05T10:48:53.030Z,12.77
2019-04-05T10:51:22.850Z,12.73
2019-04-05T10:53:52.770Z,12.13
2019-04-05T10:56:22.665Z,12.27
2019-04-05T10:58:52.652Z,12.20
2019-04-05T11:01:22.549Z,11.97
2019-04-05T11:03:52.454Z,12.90
2019-04-05T11:06:22.433Z,12.30
2019-04-05T11:08:52.284Z,12.37
2019-04-05T11:11:22.312Z,12.10
2019-04-05T11:13:52.217Z,12.77
2019-04-05T11:16:22.244Z,13.80
2019-04-05T11:18:52.272Z,12.87
2019-04-05T11:21:22.329Z,13.93
2019-04-05T11:23:53.538Z,13.70
2019-04-05T11:26:23.772Z,12.90
2019-04-05T11:28:53.683Z,13.50
2019-04-05T11:31:23.592Z,13.20
2019-04-05T11:33:53.969Z,14.30
2019-04-05T11:36:24.919Z,14.00
2019-04-05T11:38:55.221Z,13.47
2019-04-05T11:41:26.557Z,13.33
2019-04-05T11:43:58.486Z,13.93
2019-04-05T11:46:32.293Z,13.87
2019-04-05T11:49:03.724Z,13.77
2019-04-05T11:51:34.498Z,13.90
2019-04-05T11:54:04.595Z,13.80
2019-04-05T11:56:34.485Z,14.00
2019-04-05T11:59:06.753Z,14.33
2019-04-05T12:01:50.918Z,13.07
2019-04-05T12:04:20.907Z,13.77
2019-04-05T12:06:52.175Z,14.33
2019-04-05T12:09:22.509Z,14.77
2019-04-05T12:11:52.594Z,15.07
2019-04-05T12:14:30.211Z,14.60
2019-04-05T12:16:54.312Z,14.60
2019-04-05T12:19:24.234Z,14.67
2019-04-05T12:21:54.072Z,15.00
2019-04-05T12:24:23.921Z,15.40
2019-04-05T12:26:53.934Z,15.53
2019-04-05T12:29:23.864Z,14.43
2019-04-05T12:31:54.473Z,15.10
2019-04-05T12:34:24.409Z,13.80
2019-04-05T12:36:54.314Z,14.40
2019-04-05T12:39:24.220Z,14.33
2019-04-05T12:41:54.138Z,14.37
2019-04-05T12:44:24.142Z,15.53
2019-04-05T12:46:54.191Z,14.97
2019-04-05T12:49:24.201Z,14.40
2019-04-05T12:51:54.114Z,13.40
2019-04-05T12:54:24.043Z,14.10
2019-04-05T12:56:54.346Z,14.90
2019-04-05T12:59:25.952Z,14.17
2019-04-05T13:01:55.962Z,13.60
2019-04-05T13:04:25.873Z,13.13
2019-04-05T13:06:55.837Z,13.13
2019-04-05T13:09:25.689Z,13.20
2019-04-05T13:11:57.351Z,13.00
2019-04-05T13:14:27.374Z,14.23
2019-04-05T13:16:57.281Z,13.90
2019-04-05T13:19:28.538Z,13.93
2019-04-05T13:22:00.647Z,14.10
2019-04-05T13:24:30.423Z,12.40
2019-04-05T13:27:01.905Z,11.07
2019-04-05T13:29:32.169Z,11.57
2019-04-05T13:32:02.076Z,13.40
2019-04-05T13:34:31.986Z,12.50
2019-04-05T13:37:02.010Z,13.23
2019-04-05T13:39:31.958Z,13.23
2019-04-05T13:42:02.478Z,12.70
2019-04-05T13:44:33.592Z,13.53
2019-04-05T13:47:03.906Z,14.07
2019-04-05T13:49:33.891Z,14.60
2019-04-05T13:52:06.560Z,14.30
2019-04-05T13:54:35.406Z,14.07
2019-04-05T13:57:05.425Z,13.67
2019-04-05T13:59:35.395Z,14.77
2019-04-05T14:02:06.731Z,15.53
2019-04-05T14:04:36.776Z,15.63
2019-04-05T14:07:06.745Z,14.77
2019-04-05T14:09:38.485Z,14.07
2019-04-05T14:12:09.669Z,14.80
2019-04-05T14:14:41.502Z,15.20
2019-04-05T14:17:13.669Z,14.17
2019-04-05T14:19:43.687Z,15.00
2019-04-05T14:22:13.605Z,14.63
2019-04-05T14:24:43.517Z,14.80
2019-04-05T14:27:13.487Z,14.77
2019-04-05T14:29:43.310Z,15.17
2019-04-05T14:32:21.079Z,13.87
2019-04-05T14:34:44.920Z,14.93
2019-04-05T14:37:14.767Z,14.07
2019-04-05T14:39:44.601Z,15.33
2019-04-05T14:42:14.975Z,14.83
2019-04-05T14:44:45.599Z,14.80
2019-04-05T14:47:15.672Z,14.90
2019-04-05T14:49:45.528Z,15.37
2019-04-05T14:52:15.473Z,14.67
2019-04-05T14:54:45.307Z,13.80
2019-04-05T14:57:15.146Z,14.20
2019-04-05T14:59:45.071Z,14.10
2019-04-05T15:02:14.995Z,14.80
2019-04-05T15:04:44.967Z,14.17
2019-04-05T15:07:14.867Z,13.17
2019-04-05T15:09:44.705Z,14.50
2019-04-05T15:12:14.684Z,13.83
2019-04-05T15:14:44.713Z,14.63
2019-04-05T15:17:14.629Z,14.23
2019-04-05T15:19:44.465Z,15.10
2019-04-05T15:22:15.266Z,14.17
2019-04-05T15:24:47.203Z,15.17
2019-04-05T15:27:19.405Z,14.70
2019-04-05T15:29:49.023Z,15.70
2019-04-05T15:32:19.387Z,14.93
2019-04-05T15:34:49.264Z,15.20
2019-04-05T15:37:19.179Z,15.77
2019-04-05T15:39:49.165Z,15.17
2019-04-05T15:42:19.066Z,15.60
2019-04-05T15:44:48.994Z,14.63
2019-04-05T15:47:23.229Z,14.43
2019-04-05T15:49:52.041Z,14.07
2019-04-05T15:52:22.861Z,14.50
2019-04-05T15:54:52.944Z,14.67
2019-04-05T15:57:22.789Z,13.40
2019-04-05T15:59:52.798Z,14.40
2019-04-05T16:02:22.795Z,14.17
2019-04-05T16:04:52.777Z,14.73
2019-04-05T16:07:22.802Z,14.90
2019-04-05T16:09:52.720Z,16.10
2019-04-05T16:12:22.634Z,15.70
2019-04-05T16:14:52.466Z,16.00
2019-04-05T16:17:22.375Z,15.93
2019-04-05T16:19:52.366Z,16.87
2019-04-05T16:22:31.111Z,16.43
2019-04-05T16:24:53.970Z,17.27
2019-04-05T16:27:23.797Z,16.13
2019-04-05T16:29:53.623Z,18.00
2019-04-05T16:32:23.531Z,18.27
2019-04-05T16:34:53.416Z,17.33
2019-04-05T16:37:23.251Z,19.07
2019-04-05T16:39:53.257Z,17.90
2019-04-05T16:42:23.196Z,18.07
2019-04-05T16:44:53.083Z,18.00
2019-04-05T16:47:23.088Z,17.87
2019-04-05T16:49:53.057Z,18.30
2019-04-05T16:52:23.117Z,18.83
2019-04-05T16:54:53.017Z,18.20
2019-04-05T16:57:22.886Z,17.70
2019-04-05T16:59:52.727Z,19.37
2019-04-05T17:02:22.828Z,20.50
2019-04-05T17:04:52.705Z,19.63
2019-04-05T17:07:22.627Z,19.70
2019-04-05T17:09:52.471Z,19.73
2019-04-05T17:12:22.516Z,20.30
2019-04-05T17:14:52.535Z,20.33
2019-04-05T17:17:22.459Z,20.17
2019-04-05T17:19:52.479Z,20.63
2019-04-05T17:22:22.383Z,20.13
2019-04-05T17:24:52.359Z,20.93
2019-04-05T17:27:22.273Z,21.13
2019-04-05T17:29:52.403Z,21.60
2019-04-05T17:32:22.317Z,20.77
2019-04-05T17:34:52.151Z,21.60
2019-04-05T17:37:21.988Z,20.60
2019-04-05T17:39:51.808Z,20.27
2019-04-05T17:42:22.918Z,20.30
2019-04-05T17:44:52.757Z,20.33
2019-04-05T17:47:22.968Z,20.33
2019-04-05T17:49:54.048Z,21.10
2019-04-05T17:52:23.942Z,20.77
2019-04-05T17:54:53.925Z,21.03
2019-04-05T17:57:24.101Z,21.13
2019-04-05T17:59:54.636Z,20.10
2019-04-05T18:02:24.629Z,21.77
2019-04-05T18:04:54.611Z,21.27
2019-04-05T18:07:24.429Z,20.77
2019-04-05T18:09:54.409Z,20.90
2019-04-05T18:12:24.328Z,21.73
2019-04-05T18:14:54.352Z,21.23
2019-04-05T18:17:24.194Z,20.50
2019-04-05T18:19:54.031Z,20.63
2019-04-05T18:22:23.876Z,25.77
2019-04-05T18:24:53.771Z,21.60
2019-04-05T18:27:23.670Z,21.60
2019-04-05T18:29:53.505Z,21.50
2019-04-05T18:32:23.411Z,21.10
2019-04-05T18:34:53.313Z,21.90
2019-04-05T18:37:23.151Z,21.23
2019-04-05T18:39:53.744Z,21.63
2019-04-05T18:42:23.638Z,20.20
2019-04-05T18:44:53.543Z,20.97
2019-04-05T18:47:23.469Z,21.10
2019-04-05T18:50:02.927Z,21.83
2019-04-05T18:52:24.961Z,19.67
2019-04-05T18:54:54.863Z,20.63
2019-04-05T18:57:24.767Z,21.10
2019-04-05T18:59:54.687Z,22.60
2019-04-05T19:02:24.618Z,21.33
2019-04-05T19:04:54.457Z,21.33
2019-04-05T19:07:24.519Z,24.50
2019-04-05T19:09:54.458Z,23.67
2019-04-05T19:12:24.444Z,23.17
2019-04-05T19:14:54.365Z,24.60
2019-04-05T19:17:24.715Z,24.57
2019-04-05T19:19:54.794Z,20.97
2019-04-05T19:22:24.720Z,22.40
2019-04-05T19:24:54.651Z,22.70
2019-04-05T19:27:24.489Z,23.13
2019-04-05T19:29:54.332Z,23.00
2019-04-05T19:50:05.936Z,22.83
2019-04-05T19:52:35.899Z,23.00
2019-04-05T19:55:06.280Z,22.37
2019-04-05T19:57:36.098Z,22.77
2019-04-05T20:00:06.972Z,23.67
2019-04-05T20:02:36.963Z,25.30
2019-04-05T20:05:07.813Z,22.73
2019-04-05T20:07:38.748Z,22.47
2019-04-05T20:10:08.725Z,21.60
2019-04-05T20:12:38.649Z,21.90
2019-04-05T20:15:08.689Z,21.97
2019-04-05T20:17:38.588Z,21.57
2019-04-05T20:20:10.628Z,22.40
2019-04-05T20:22:40.529Z,21.73
2019-04-05T20:25:11.106Z,22.40
2019-04-05T20:27:41.085Z,23.17
2019-04-05T20:30:11.577Z,22.23
2019-04-05T20:32:41.516Z,21.13
2019-04-05T20:35:11.537Z,21.47
2019-04-05T20:37:42.579Z,22.50
2019-04-05T20:40:12.635Z,22.50
2019-04-05T20:42:42.690Z,22.10
2019-04-05T20:45:12.701Z,21.53
2019-04-05T20:47:42.617Z,20.37
2019-04-05T20:50:12.639Z,21.10
2019-04-05T20:52:42.957Z,22.00
2019-04-05T20:55:12.973Z,22.13
2019-04-05T20:57:42.937Z,22.43
2019-04-05T21:00:14.033Z,22.50
2019-04-05T21:02:44.031Z,20.90
2019-04-05T21:05:20.652Z,21.30
2019-04-05T21:07:45.394Z,20.70
2019-04-05T21:10:15.560Z,20.60
2019-04-05T21:12:45.384Z,21.10
2019-04-05T21:15:15.391Z,21.83
2019-04-05T21:17:45.322Z,21.43
2019-04-05T21:20:15.433Z,20.80
2019-04-05T21:22:45.411Z,21.03
2019-04-05T21:25:16.351Z,21.77
2019-04-05T21:27:46.256Z,22.07
2019-04-05T21:30:16.760Z,21.37
2019-04-05T21:32:46.766Z,21.43
2019-04-05T21:35:16.830Z,21.60
2019-04-05T21:37:46.687Z,21.03
2019-04-05T21:40:16.964Z,21.90
2019-04-05T21:42:46.784Z,21.33
2019-04-05T21:45:16.742Z,20.77
2019-04-05T21:47:46.571Z,20.20
2019-04-05T21:50:16.563Z,16.10
2019-04-05T21:52:46.631Z,15.87
2019-04-05T21:55:17.814Z,14.70
2019-04-05T21:57:47.725Z,15.27
2019-04-05T22:00:25.902Z,18.60
2019-04-05T22:02:57.421Z,17.77
2019-04-05T22:05:28.395Z,18.47
2019-04-05T22:07:58.228Z,18.70
2019-04-05T22:10:28.052Z,18.20
2019-04-05T22:12:57.889Z,19.30
2019-04-05T22:15:27.713Z,18.53
2019-04-05T22:17:57.575Z,19.30
2019-04-05T22:20:27.441Z,18.63
2019-04-05T22:22:57.330Z,18.80
2019-04-05T22:25:27.166Z,19.73
2019-04-05T22:27:57.071Z,19.73
2019-04-05T22:30:27.052Z,19.17
2019-04-05T22:32:56.882Z,20.17
2019-04-05T22:35:26.790Z,19.03
2019-04-05T22:37:56.610Z,19.23
2019-04-05T22:40:26.607Z,19.00
2019-04-05T22:42:56.595Z,18.63
2019-04-05T22:45:26.477Z,20.20
2019-04-05T22:47:56.450Z,18.53
2019-04-05T22:50:26.357Z,18.93
2019-04-05T22:52:56.344Z,19.63
2019-04-05T22:55:26.243Z,18.83
2019-04-05T22:57:56.051Z,19.40
2019-04-05T23:00:25.874Z,17.83
2019-04-05T23:02:55.778Z,18.50
2019-04-05T23:05:25.666Z,18.50
2019-04-05T23:07:55.584Z,18.23
2019-04-05T23:10:25.460Z,18.03
2019-04-05T23:12:55.378Z,18.90
2019-04-05T23:15:25.267Z,18.90
2019-04-05T23:17:55.094Z,19.73
2019-04-05T23:20:24.993Z,19.13
2019-04-05T23:22:54.821Z,16.90
2019-04-05T23:25:24.726Z,17.90
2019-04-05T23:27:54.549Z,18.43
2019-04-05T23:30:25.864Z,18.60
2019-04-05T23:32:55.703Z,19.77
2019-04-05T23:35:25.799Z,17.67
2019-04-05T23:37:55.712Z,19.27
2019-04-05T23:40:25.690Z,17.80
2019-04-05T23:42:55.602Z,18.50
2019-04-05T23:45:25.422Z,20.10
2019-04-05T23:47:55.348Z,19.17
2019-04-05T23:50:25.249Z,18.20
2019-04-05T23:52:55.140Z,19.47
2019-04-05T23:55:33.118Z,17.80
2019-04-05T23:57:56.651Z,18.17
